Time;durP1;ratioP1;P1;durP2;ratioP2;P2;SDS_P1;SDS_P2;PMS_P1;PMS_P2;Temp;Humidity;BMP_temperature;BMP_pressure;BME280_temperature;BME280_humidity;BME280_pressure;Samples;Min_cycle;Max_cycle;Signal;HPM_P1;HPM_P2
2021/12/22 00:00:11;;;;;;;47.75;19.25;;;;;;;-5.95;100.00;101215.38;5044367;28;20029;-82
2021/12/22 00:02:39;;;;;;;81.80;19.73;;;;;;;-5.91;100.00;101219.03;5043856;28;20033;-82
2021/12/22 00:05:04;;;;;;;100.80;21.85;;;;;;;-5.92;100.00;101211.13;5037821;28;20021;-81
2021/12/22 00:07:30;;;;;;;44.33;19.70;;;;;;;-5.86;100.00;101208.88;5037730;28;20033;-81
2021/12/22 00:09:55;;;;;;;59.90;21.70;;;;;;;-5.84;100.00;101215.03;5040485;28;20068;-81
2021/12/22 00:12:20;;;;;;;77.80;21.50;;;;;;;-5.94;100.00;101211.97;5042474;28;20032;-83
2021/12/22 00:14:46;;;;;;;55.08;19.65;;;;;;;-5.96;100.00;101216.19;5044250;28;20037;-81
2021/12/22 00:17:11;;;;;;;103.47;22.25;;;;;;;-6.12;100.00;101214.50;5043779;28;20060;-82
2021/12/22 00:19:37;;;;;;;58.67;18.10;;;;;;;-6.11;100.00;101223.22;5043244;28;20066;-82
2021/12/22 00:22:02;;;;;;;48.88;18.92;;;;;;;-6.18;100.00;101224.56;5052901;22;20417;-71
2021/12/22 00:24:28;;;;;;;102.03;20.75;;;;;;;-6.21;100.00;101219.22;5035067;28;20025;-70
2021/12/22 00:26:54;;;;;;;52.17;18.77;;;;;;;-6.18;100.00;101225.47;5034029;28;20470;-70
2021/12/22 00:29:19;;;;;;;71.75;20.92;;;;;;;-6.21;100.00;101209.69;5035214;28;20026;-70
2021/12/22 00:31:57;;;;;;;112.68;24.08;;;;;;;-6.27;100.00;101209.38;5034986;28;20115;-70
2021/12/22 00:34:25;;;;;;;63.00;19.63;;;;;;;-6.23;100.00;101213.94;5033522;28;20399;-70
2021/12/22 00:36:50;;;;;;;70.28;20.23;;;;;;;-6.21;100.00;101217.50;5035099;28;20029;-71
2021/12/22 00:39:15;;;;;;;62.33;20.85;;;;;;;-6.17;100.00;101208.16;5035142;28;20382;-70
2021/12/22 00:41:41;;;;;;;60.88;19.95;;;;;;;-6.10;100.00;101207.69;5035381;28;20033;-70
2021/12/22 00:44:06;;;;;;;51.03;19.15;;;;;;;-6.01;100.00;101209.84;5035299;28;20021;-70
2021/12/22 00:46:32;;;;;;;42.33;18.83;;;;;;;-6.00;100.00;101211.63;5034985;28;20029;-70
2021/12/22 00:48:57;;;;;;;48.25;19.60;;;;;;;-5.95;100.00;101210.16;5034599;28;20474;-70
2021/12/22 00:51:22;;;;;;;55.80;19.60;;;;;;;-5.98;100.00;101204.78;5034992;28;20080;-70
2021/12/22 00:53:48;;;;;;;49.53;18.20;;;;;;;-5.98;100.00;101202.19;5034492;28;20061;-70
2021/12/22 00:56:14;;;;;;;56.25;18.65;;;;;;;-6.08;100.00;101206.06;5034469;28;20025;-70
2021/12/22 00:58:39;;;;;;;48.65;16.52;;;;;;;-6.15;100.00;101205.63;5034362;28;20393;-70
2021/12/22 01:01:05;;;;;;;70.50;17.60;;;;;;;-6.28;100.00;101211.09;5034387;28;20456;-70
2021/12/22 01:03:33;;;;;;;76.72;18.13;;;;;;;-6.37;100.00;101205.41;5034339;28;20057;-70
2021/12/22 01:05:59;;;;;;;43.88;16.40;;;;;;;-6.40;100.00;101206.13;5033333;28;20112;-70
2021/12/22 01:08:24;;;;;;;51.92;16.92;;;;;;;-6.41;100.00;101209.53;5034144;28;20473;-70
2021/12/22 01:10:49;;;;;;;48.42;17.42;;;;;;;-6.42;100.00;101207.75;5034421;28;20025;-70
2021/12/22 01:13:15;;;;;;;58.60;17.98;;;;;;;-6.41;100.00;101214.72;5034088;28;20470;-70
2021/12/22 01:15:41;;;;;;;52.80;16.88;;;;;;;-6.42;100.00;101223.34;5034210;28;20454;-70
2021/12/22 01:18:14;;;;;;;61.45;19.85;;;;;;;-6.46;100.00;101221.38;5034084;28;20040;-70
2021/12/22 01:23:33;;;;;;;57.25;18.17;;;;;;;-6.44;100.00;101219.75;5034262;28;20497;-70
2021/12/22 01:25:58;;;;;;;52.90;17.92;;;;;;;-6.35;100.00;101224.56;5032732;28;20025;-70
2021/12/22 01:28:25;;;;;;;43.60;16.13;;;;;;;-6.39;100.00;101220.91;5033777;28;20493;-70
2021/12/22 01:30:50;;;;;;;47.65;17.27;;;;;;;-6.40;100.00;101220.81;5033798;28;20017;-70
2021/12/22 01:33:17;;;;;;;54.75;16.90;;;;;;;-6.38;100.00;101224.38;5033704;28;20030;-70
2021/12/22 01:35:42;;;;;;;48.80;18.02;;;;;;;-6.37;100.00;101227.91;5033738;28;20037;-70
2021/12/22 01:38:09;;;;;;;36.65;15.65;;;;;;;-6.33;100.00;101227.25;5033748;28;20026;-71
2021/12/22 01:40:38;;;;;;;52.50;17.65;;;;;;;-6.31;100.00;101236.00;5032283;28;20440;-70
2021/12/22 01:43:05;;;;;;;53.10;17.67;;;;;;;-6.28;100.00;101231.88;5032585;28;20171;-70
2021/12/22 01:49:11;;;;;;;51.17;17.27;;;;;;;-6.25;100.00;101227.66;5033900;28;20067;-70
2021/12/22 01:52:00;;;;;;;38.75;14.25;;;;;;;-6.22;100.00;101225.22;5033818;28;20092;-70
2021/12/22 01:54:47;;;;;;;46.45;15.73;;;;;;;-6.20;100.00;101218.41;5033705;28;20111;-71
2021/12/22 01:57:14;;;;;;;43.97;16.50;;;;;;;-6.29;100.00;101213.63;5033477;28;20026;-71
2021/12/22 01:59:42;;;;;;;37.20;15.73;;;;;;;-6.21;100.00;101219.22;5033328;28;20024;-70
2021/12/22 02:02:09;;;;;;;37.25;17.52;;;;;;;-6.22;100.00;101215.72;5033149;28;20386;-70
2021/12/22 02:04:37;;;;;;;35.97;15.60;;;;;;;-6.14;100.00;101217.84;5033384;28;20486;-70
2021/12/22 02:07:03;;;;;;;41.63;15.32;;;;;;;-6.14;100.00;101223.03;5031994;28;20041;-70
2021/12/22 02:12:13;;;;;;;;;;;;;;;-6.13;100.00;101219.66;5034052;28;20162;-70
2021/12/22 02:14:40;;;;;;;34.88;13.73;;;;;;;-6.07;100.00;101212.16;5033068;28;20012;-70
2021/12/22 02:17:09;;;;;;;36.80;14.45;;;;;;;-6.05;100.00;101213.09;5033266;28;20028;-70
2021/12/22 02:19:45;;;;;;;36.92;15.30;;;;;;;-6.07;100.00;101219.94;5031792;28;20401;-70
2021/12/22 02:22:14;;;;;;;40.03;15.68;;;;;;;-6.09;100.00;101212.09;5033053;28;20033;-70
2021/12/22 02:24:49;;;;;;;41.47;15.05;;;;;;;-6.07;100.00;101220.81;5031764;28;20489;-70
2021/12/22 02:27:35;;;;;;;41.28;15.18;;;;;;;-6.04;100.00;101214.88;5031791;28;20033;-70
2021/12/22 02:30:04;;;;;;;38.30;14.38;;;;;;;-6.05;100.00;101229.59;5031795;28;20022;-70
2021/12/22 02:35:02;;;;;;;38.55;15.80;;;;;;;-6.12;100.00;101221.41;5036590;28;20469;-70
2021/12/22 02:37:29;;;;;;;38.08;14.95;;;;;;;-6.15;100.00;101222.16;5037430;28;20021;-70
2021/12/22 02:40:00;;;;;;;35.28;14.30;;;;;;;-6.10;100.00;101224.97;5035860;28;20026;-70
2021/12/22 02:42:31;;;;;;;34.47;14.18;;;;;;;-6.12;100.00;101221.41;5037139;28;20021;-70
2021/12/22 02:44:56;;;;;;;36.13;14.43;;;;;;;-6.20;100.00;101211.50;5037046;28;20021;-70
2021/12/22 02:47:24;;;;;;;35.88;14.27;;;;;;;-6.25;100.00;101207.75;5037089;28;20500;-70
2021/12/22 02:49:50;;;;;;;52.25;15.23;;;;;;;-6.26;100.00;101202.50;5036878;28;20104;-70
2021/12/22 02:52:16;;;;;;;41.17;16.45;;;;;;;-6.17;100.00;101209.06;5036892;28;20508;-70
2021/12/22 02:54:48;;;;;;;36.25;15.75;;;;;;;-6.11;100.00;101218.91;5036751;28;20033;-70
2021/12/22 02:57:30;;;;;;;32.10;14.83;;;;;;;-6.14;100.00;101223.03;5036837;28;20101;-70
2021/12/22 03:00:27;;;;;;;36.53;14.30;;;;;;;-6.13;100.00;101227.44;5035494;28;20112;-69
2021/12/22 03:05:22;;;;;;;32.33;13.88;;;;;;;-6.12;100.00;101217.13;5036952;28;20350;-70
2021/12/22 03:07:48;;;;;;;30.80;13.98;;;;;;;-6.18;100.00;101215.06;5036549;28;20022;-70
2021/12/22 03:10:17;;;;;;;34.67;14.10;;;;;;;-6.15;100.00;101211.75;5036577;28;20029;-70
2021/12/22 03:12:51;;;;;;;32.10;13.65;;;;;;;-6.17;100.00;101208.16;5036423;28;20032;-70
2021/12/22 03:15:16;;;;;;;34.20;13.98;;;;;;;-6.17;100.00;101203.88;5036497;28;20025;-70
2021/12/22 03:17:41;;;;;;;34.22;13.68;;;;;;;-6.29;100.00;101208.41;5035086;28;20128;-70
2021/12/22 03:20:12;;;;;;;30.88;13.65;;;;;;;-6.30;100.00;101211.81;5036238;28;20104;-70
2021/12/22 03:22:37;;;;;;;36.17;14.85;;;;;;;-6.28;100.00;101212.78;5036166;28;20029;-70
2021/12/22 03:25:14;;;;;;;33.15;13.27;;;;;;;-6.31;100.00;101210.00;5036181;28;20020;-70
2021/12/22 03:27:50;;;;;;;32.65;14.13;;;;;;;-6.33;100.00;101211.63;5034985;28;20017;-70
2021/12/22 03:30:19;;;;;;;37.38;13.98;;;;;;;-6.30;100.00;101214.41;5036156;28;20018;-70
2021/12/22 03:32:44;;;;;;;30.35;13.43;;;;;;;-6.29;100.00;101218.81;5036176;28;20022;-70
2021/12/22 03:35:16;;;;;;;31.00;13.73;;;;;;;-6.26;100.00;101218.94;5035985;28;20032;-70
2021/12/22 03:37:42;;;;;;;33.53;13.43;;;;;;;-6.24;100.00;101214.75;5034756;28;20017;-70
2021/12/22 03:40:08;;;;;;;37.78;14.73;;;;;;;-6.21;100.00;101206.22;5035904;28;20032;-70
2021/12/22 03:42:33;;;;;;;35.03;14.07;;;;;;;-6.26;100.00;101202.50;5035767;28;20030;-70
2021/12/22 03:44:58;;;;;;;29.35;13.32;;;;;;;-6.31;100.00;101194.41;5034509;28;20014;-70
2021/12/22 03:47:26;;;;;;;35.88;14.20;;;;;;;-6.42;100.00;101206.84;5035732;28;20021;-70
2021/12/22 03:49:51;;;;;;;34.33;14.52;;;;;;;-6.49;100.00;101200.41;5035727;28;20026;-70
2021/12/22 03:52:16;;;;;;;33.75;14.80;;;;;;;-6.50;100.00;101206.44;5035675;28;20028;-70
2021/12/22 03:54:41;;;;;;;38.25;14.02;;;;;;;-6.51;100.00;101202.03;5035580;28;20064;-70
2021/12/22 03:57:07;;;;;;;40.63;13.07;;;;;;;-6.49;100.00;101205.59;5035666;28;20029;-70
2021/12/22 03:59:32;;;;;;;32.38;12.82;;;;;;;-6.45;100.00;101212.78;5035524;28;20036;-70
2021/12/22 04:01:59;;;;;;;34.53;13.07;;;;;;;-6.49;100.00;101210.81;5035458;28;20026;-70
2021/12/22 04:04:25;;;;;;;32.85;13.13;;;;;;;-6.47;100.00;101209.22;5035777;28;20039;-70
2021/12/22 04:06:51;;;;;;;48.53;13.73;;;;;;;-6.46;100.00;101202.28;5035447;28;20416;-70
2021/12/22 04:09:18;;;;;;;32.25;13.82;;;;;;;-6.44;100.00;101198.94;5035376;28;20508;-70
2021/12/22 04:11:44;;;;;;;37.95;13.85;;;;;;;-6.53;100.00;101198.47;5035330;28;20025;-70
2021/12/22 04:14:11;;;;;;;42.85;13.38;;;;;;;-6.62;100.00;101197.13;5034022;28;20029;-70
2021/12/22 04:16:37;;;;;;;40.20;13.38;;;;;;;-6.66;100.00;101200.38;5035557;28;20021;-70
2021/12/22 04:19:03;;;;;;;33.53;13.80;;;;;;;-6.66;100.00;101200.38;5035489;28;20090;-70
2021/12/22 04:21:29;;;;;;;32.42;12.60;;;;;;;-6.54;100.00;101196.66;5035072;28;20086;-70
2021/12/22 04:23:55;;;;;;;38.63;13.55;;;;;;;-6.62;100.00;101196.22;5035200;28;20022;-70
2021/12/22 04:26:20;;;;;;;37.72;12.98;;;;;;;-6.60;100.00;101194.66;5035447;28;20028;-70
2021/12/22 04:28:46;;;;;;;41.58;14.43;;;;;;;-6.68;100.00;101191.63;5035005;28;20030;-71
2021/12/22 04:31:11;;;;;;;35.47;13.10;;;;;;;-6.64;100.00;101196.16;5035237;28;20120;-70
2021/12/22 04:33:37;;;;;;;35.42;14.60;;;;;;;-6.55;100.00;101194.88;5034990;28;20025;-70
2021/12/22 04:36:03;;;;;;;37.63;13.70;;;;;;;-6.52;100.00;101195.06;5035053;28;20553;-70
2021/12/22 04:38:28;;;;;;;32.33;15.05;;;;;;;-6.52;100.00;101200.25;5034782;28;20030;-70
2021/12/22 04:40:54;;;;;;;31.05;13.70;;;;;;;-6.55;100.00;101190.59;5035098;28;20390;-71
2021/12/22 04:43:19;;;;;;;33.38;13.20;;;;;;;-6.52;100.00;101188.13;5035121;28;20096;-70
2021/12/22 04:45:45;;;;;;;36.28;15.23;;;;;;;-6.50;100.00;101188.25;5033410;28;20478;-70
2021/12/22 04:48:10;;;;;;;38.00;15.50;;;;;;;-6.53;100.00;101194.16;5034685;28;20021;-70
2021/12/22 04:50:36;;;;;;;33.42;13.88;;;;;;;-6.47;100.00;101191.00;5034831;28;20036;-70
2021/12/22 04:53:09;;;;;;;35.25;13.68;;;;;;;-6.45;100.00;101196.28;5034692;28;20040;-69
2021/12/22 04:55:34;;;;;;;31.38;12.93;;;;;;;-6.44;100.00;101193.75;5034563;28;20025;-69
2021/12/22 04:58:00;;;;;;;31.33;13.55;;;;;;;-6.43;100.00;101192.97;5034082;28;20032;-69
2021/12/22 05:00:29;;;;;;;36.63;12.90;;;;;;;-6.45;100.00;101192.00;5034431;28;20393;-70
2021/12/22 05:02:56;;;;;;;35.05;13.38;;;;;;;-6.41;100.00;101191.31;5034422;28;20160;-69
2021/12/22 05:05:22;;;;;;;34.13;13.85;;;;;;;-6.42;100.00;101192.16;5034444;28;20026;-69
2021/12/22 05:07:47;;;;;;;35.50;13.25;;;;;;;-6.41;100.00;101191.31;5033010;28;20030;-69
2021/12/22 05:10:15;;;;;;;31.45;13.20;;;;;;;-6.36;100.00;101190.69;5032949;28;20060;-70
2021/12/22 05:12:41;;;;;;;34.28;13.95;;;;;;;-6.30;100.00;101189.31;5034193;28;20029;-70
2021/12/22 05:15:06;;;;;;;35.30;13.95;;;;;;;-6.35;100.00;101182.06;5034019;28;20025;-70
2021/12/22 05:18:01;;;;;;;34.40;15.13;;;;;;;-6.35;100.00;101182.97;5034105;28;20500;-69
2021/12/22 05:20:24;;;;;;;33.60;13.55;;;;;;;-6.36;100.00;101185.50;5033848;28;20088;-69
2021/12/22 05:22:50;;;;;;;34.78;14.27;;;;;;;-6.41;100.00;101188.72;5033816;28;20478;-69
2021/12/22 05:25:15;;;;;;;34.78;13.95;;;;;;;-6.35;100.00;101192.47;5034198;28;20021;-69
2021/12/22 05:27:41;;;;;;;31.08;13.23;;;;;;;-6.34;100.00;101194.28;5033917;28;20390;-69
2021/12/22 05:30:09;;;;;;;34.47;14.60;;;;;;;-6.32;100.00;101197.84;5032452;28;20398;-69
2021/12/22 05:32:36;;;;;;;31.38;12.68;;;;;;;-6.36;100.00;101198.50;5034102;28;20033;-69
2021/12/22 05:35:05;;;;;;;30.48;14.15;;;;;;;-6.36;100.00;101201.09;5033727;28;20066;-70
2021/12/22 05:37:30;;;;;;;30.90;14.18;;;;;;;-6.43;100.00;101192.06;5033746;28;20033;-70
2021/12/22 05:39:56;;;;;;;35.53;14.85;;;;;;;-6.45;100.00;101186.78;5033572;28;20105;-69
2021/12/22 05:42:23;;;;;;;31.98;14.00;;;;;;;-6.41;100.00;101193.03;5034285;28;20470;-70
2021/12/22 05:44:48;;;;;;;31.48;14.65;;;;;;;-6.41;100.00;101190.44;5033741;28;20029;-70
2021/12/22 05:47:14;;;;;;;34.95;14.00;;;;;;;-6.42;100.00;101186.97;5033874;28;20024;-70
2021/12/22 05:49:40;;;;;;;31.80;12.85;;;;;;;-6.49;100.00;101184.81;5033451;28;20037;-70
2021/12/22 05:52:06;;;;;;;30.98;12.30;;;;;;;-6.51;100.00;101181.25;5033733;28;20017;-69
2021/12/22 05:54:31;;;;;;;29.48;12.57;;;;;;;-6.55;100.00;101184.50;5032719;28;20098;-70
2021/12/22 05:56:56;;;;;;;31.00;13.30;;;;;;;-6.58;100.00;101190.41;5033383;28;20017;-70
2021/12/22 05:59:22;;;;;;;33.05;12.15;;;;;;;-6.59;100.00;101182.50;5033347;28;20025;-69
2021/12/22 06:01:47;;;;;;;31.98;13.27;;;;;;;-6.62;100.00;101184.16;5033312;28;20033;-69
2021/12/22 06:04:12;;;;;;;31.92;14.23;;;;;;;-6.63;100.00;101178.88;5033295;28;20063;-69
2021/12/22 06:06:37;;;;;;;32.28;14.23;;;;;;;-6.66;100.00;101183.91;5033224;28;20394;-69
2021/12/22 06:09:04;;;;;;;33.60;14.57;;;;;;;-6.59;100.00;101179.91;5032400;28;20025;-69
2021/12/22 06:11:29;;;;;;;34.90;14.10;;;;;;;-6.59;100.00;101180.81;5031926;28;20017;-69
2021/12/22 06:13:55;;;;;;;34.13;13.13;;;;;;;-6.52;100.00;101179.47;5033040;28;20021;-69
2021/12/22 06:16:21;;;;;;;34.00;14.23;;;;;;;-6.53;100.00;101172.47;5033163;28;20048;-69
2021/12/22 06:18:50;;;;;;;33.47;13.73;;;;;;;-6.50;100.00;101177.84;5031861;28;20068;-69
2021/12/22 06:21:15;;;;;;;37.05;13.68;;;;;;;-6.52;100.00;101169.94;5031752;28;20401;-69
2021/12/22 06:23:40;;;;;;;30.23;13.60;;;;;;;-6.51;100.00;101168.25;5073901;22;20077;-79
2021/12/22 06:26:06;;;;;;;36.83;13.50;;;;;;;-6.53;100.00;101172.47;5040472;28;20040;-80
2021/12/22 06:28:32;;;;;;;33.80;12.82;;;;;;;-6.49;100.00;101169.22;5044648;28;20025;-80
2021/12/22 06:30:57;;;;;;;32.63;12.98;;;;;;;-6.47;100.00;101172.81;5042783;28;20036;-79
2021/12/22 06:33:23;;;;;;;31.60;12.95;;;;;;;-6.57;100.00;101175.72;5044476;28;20029;-80
2021/12/22 06:35:48;;;;;;;28.98;12.38;;;;;;;-6.59;100.00;101182.50;5042805;28;20030;-80
2021/12/22 06:38:15;;;;;;;35.45;14.50;;;;;;;-6.63;100.00;101177.19;5044398;28;20025;-80
2021/12/22 06:40:40;;;;;;;34.63;12.57;;;;;;;-6.63;100.00;101174.59;5042753;28;20021;-80
2021/12/22 06:43:06;;;;;;;35.58;14.02;;;;;;;-6.54;100.00;101176.78;5044772;28;20454;-78
2021/12/22 06:45:31;;;;;;;42.65;15.07;;;;;;;-6.52;100.00;101169.06;5043160;28;20071;-80
2021/12/22 06:47:57;;;;;;;32.08;14.05;;;;;;;-6.49;100.00;101169.22;5046462;28;20021;-78
2021/12/22 06:50:22;;;;;;;33.40;13.52;;;;;;;-6.53;100.00;101173.38;5045280;28;20024;-80
2021/12/22 06:52:47;;;;;;;34.83;13.23;;;;;;;-6.49;100.00;101184.81;5039413;28;20025;-80
2021/12/22 06:55:12;;;;;;;32.00;13.32;;;;;;;-6.53;100.00;101180.28;5038149;28;20497;-80
2021/12/22 06:57:38;;;;;;;33.70;12.88;;;;;;;-6.57;100.00;101180.94;5038467;28;20021;-80
2021/12/22 07:00:07;;;;;;;41.25;14.40;;;;;;;-6.56;100.00;101187.88;5040727;28;20068;-83
2021/12/22 07:02:37;;;;;;;34.75;13.82;;;;;;;-6.51;100.00;101181.25;5039422;28;20505;-82
2021/12/22 07:05:05;;;;;;;35.13;13.48;;;;;;;-6.47;100.00;101177.13;5040344;28;20381;-81
2021/12/22 07:07:30;;;;;;;34.40;12.82;;;;;;;-6.46;100.00;101172.00;5039441;28;20032;-81
2021/12/22 07:09:56;;;;;;;38.95;14.15;;;;;;;-6.40;100.00;101179.22;5038339;28;20025;-81
2021/12/22 07:12:21;;;;;;;35.00;13.52;;;;;;;-6.34;100.00;101178.69;5040824;28;20052;-79
2021/12/22 07:14:47;;;;;;;35.20;14.45;;;;;;;-6.34;100.00;101178.69;5040964;28;20026;-79
2021/12/22 07:17:22;;;;;;;35.72;13.45;;;;;;;-6.41;100.00;101177.44;5042117;28;20095;-79
2021/12/22 07:19:47;;;;;;;34.45;13.55;;;;;;;-6.33;100.00;101177.84;5042914;28;20021;-80
2021/12/22 07:22:12;;;;;;;37.53;14.32;;;;;;;-6.30;100.00;101170.22;5046864;28;20037;-80
2021/12/22 07:24:38;;;;;;;31.35;13.27;;;;;;;-6.30;100.00;101167.63;5046854;28;20025;-80
2021/12/22 07:27:03;;;;;;;33.35;13.65;;;;;;;-6.29;100.00;101174.63;5046496;28;20021;-80
2021/12/22 07:29:46;;;;;;;38.88;14.40;;;;;;;-6.31;100.00;101169.31;5042330;28;20056;-81
2021/12/22 07:43:24;;;;;;;36.35;13.25;;;;;;;-6.26;100.00;101177.34;4893858;29;20084;-80
2021/12/22 07:45:50;;;;;;;29.13;12.38;;;;;;;-6.26;100.00;101177.34;5017506;28;20034;-81
2021/12/22 07:48:15;;;;;;;32.90;13.00;;;;;;;-6.18;100.00;101178.66;5044194;28;20132;-79
2021/12/22 07:50:41;;;;;;;31.88;13.82;;;;;;;-6.17;100.00;101172.66;5043415;28;20085;-81
2021/12/22 07:53:06;;;;;;;32.05;14.07;;;;;;;-6.14;100.00;101178.84;5041779;28;20116;-80
2021/12/22 07:55:32;;;;;;;31.83;12.63;;;;;;;-6.19;100.00;101179.50;5042995;28;20080;-80
2021/12/22 07:57:57;;;;;;;34.25;13.27;;;;;;;-6.15;100.00;101184.84;5043787;28;20029;-81
2021/12/22 08:00:22;;;;;;;34.30;13.40;;;;;;;-6.16;100.00;101183.97;5043467;28;20025;-81
2021/12/22 08:06:04;;;;;;;33.88;13.30;;;;;;;-6.08;100.00;101182.66;4962091;29;20038;-83
2021/12/22 08:08:31;;;;;;;31.02;12.50;;;;;;;-6.11;100.00;101181.59;4941997;29;20035;-82
2021/12/22 08:10:57;;;;;;;37.10;12.30;;;;;;;-6.08;100.00;101181.78;5004570;28;20034;-83
2021/12/22 08:13:22;;;;;;;35.03;14.70;;;;;;;-6.06;100.00;101180.09;5040389;28;20030;-82
2021/12/22 08:15:48;;;;;;;31.85;13.40;;;;;;;-6.02;100.00;101176.84;5040773;28;20033;-82
2021/12/22 08:18:20;;;;;;;30.63;12.65;;;;;;;-6.02;100.00;101175.94;5039375;28;20040;-82
2021/12/22 08:20:48;;;;;;;29.98;12.75;;;;;;;-5.99;100.00;101176.13;5044664;28;20099;-82
2021/12/22 08:23:34;;;;;;;29.63;12.70;;;;;;;-6.02;100.00;101171.66;5045493;28;20025;-81
2021/12/22 08:27:01;;;;;;;30.38;12.43;;;;;;;-6.05;100.00;101171.47;5044380;28;20037;-82
2021/12/22 08:32:48;;;;;;;33.45;13.00;;;;;;;-5.99;100.00;101169.22;5010034;23;20072;-72
2021/12/22 08:35:16;;;;;;;32.80;13.57;;;;;;;-6.00;100.00;101164.81;5034420;28;20089;-72
2021/12/22 08:40:25;;;;;;;30.85;13.30;;;;;;;-5.98;100.00;101157.97;5034420;28;20033;-72
2021/12/22 08:42:52;;;;;;;36.38;14.23;;;;;;;-5.91;100.00;101160.91;5034412;28;20029;-72
2021/12/22 08:45:17;;;;;;;35.05;14.38;;;;;;;-5.92;100.00;101159.09;5032958;28;20405;-72
2021/12/22 08:47:43;;;;;;;33.47;13.68;;;;;;;-5.86;100.00;101156.84;5034291;28;20022;-72
2021/12/22 08:50:10;;;;;;;41.42;16.40;;;;;;;-5.85;100.00;101148.22;5034453;28;20047;-74
2021/12/22 08:52:36;;;;;;;39.35;15.95;;;;;;;-5.75;100.00;101144.38;5034422;28;20025;-74
2021/12/22 08:55:01;;;;;;;44.63;17.88;;;;;;;-5.76;100.00;101140.88;5032661;28;20036;-75
2021/12/22 08:57:27;;;;;;;48.67;18.48;;;;;;;-5.72;100.00;101142.81;5034273;28;20103;-73
2021/12/22 08:59:53;;;;;;;41.65;17.17;;;;;;;-5.68;100.00;101136.06;5034113;28;20071;-73
2021/12/22 09:02:19;;;;;;;44.33;15.65;;;;;;;-5.62;100.00;101141.56;5032700;28;20129;-74
2021/12/22 09:04:44;;;;;;;42.72;16.48;;;;;;;-5.59;100.00;101146.03;5033890;28;20100;-73
2021/12/22 09:07:09;;;;;;;44.95;18.17;;;;;;;-5.54;100.00;101146.28;5034039;28;20075;-76
2021/12/22 09:09:37;;;;;;;38.38;15.75;;;;;;;-5.55;100.00;101145.38;5032535;28;20055;-73
2021/12/22 09:12:03;;;;;;;42.97;15.52;;;;;;;-5.54;100.00;101147.16;5033800;28;20029;-73
2021/12/22 09:14:28;;;;;;;46.28;18.63;;;;;;;-5.55;100.00;101137.56;5033532;28;20025;-72
2021/12/22 09:16:53;;;;;;;37.22;15.93;;;;;;;-5.48;100.00;101149.19;5034109;28;20104;-73
2021/12/22 09:19:19;;;;;;;37.20;14.35;;;;;;;-5.41;100.00;101151.25;5033583;28;20482;-72
2021/12/22 09:21:45;;;;;;;33.83;14.30;;;;;;;-5.39;100.00;101151.38;5033904;28;20192;-73
2021/12/22 09:24:10;;;;;;;35.83;15.05;;;;;;;-5.35;100.00;101152.38;5033701;28;20394;-72
2021/12/22 09:26:36;;;;;;;36.17;14.48;;;;;;;-5.28;100.00;101155.38;5033811;28;20100;-73
2021/12/22 09:29:02;;;;;;;33.47;14.32;;;;;;;-5.19;100.00;101156.66;5033448;28;20393;-73
2021/12/22 09:31:28;;;;;;;35.88;15.43;;;;;;;-5.13;100.00;101150.84;5033533;28;20108;-73
2021/12/22 09:33:53;;;;;;;33.05;15.23;;;;;;;-5.10;100.00;101151.88;5033312;28;20121;-73
2021/12/22 09:36:20;;;;;;;36.40;15.82;;;;;;;-5.02;100.00;101148.78;5033522;28;20037;-73
2021/12/22 09:38:46;;;;;;;32.67;14.63;;;;;;;-4.94;100.00;101155.22;5033887;28;20104;-76
2021/12/22 09:41:12;;;;;;;31.98;14.25;;;;;;;-4.89;100.00;101151.13;5033536;28;20509;-75
2021/12/22 09:43:37;;;;;;;31.17;15.35;;;;;;;-4.86;100.00;101155.59;5033271;28;20497;-76
2021/12/22 09:46:07;;;;;;;31.58;15.82;;;;;;;-4.83;100.00;101160.94;5031924;28;20065;-76
2021/12/22 09:53:31;;;;;;;29.55;14.85;;;;;;;-4.82;100.00;101150.59;5033542;28;20052;-74
2021/12/22 09:56:01;;;;;;;31.73;14.95;;;;;;;-4.82;100.00;101139.28;5033600;28;20111;-76
2021/12/22 09:58:27;;;;;;;32.40;15.13;;;;;;;-4.74;100.00;101144.88;5033049;28;20032;-73
2021/12/22 10:00:53;;;;;;;33.40;14.68;;;;;;;-4.65;100.00;101140.06;5033235;28;20032;-74
2021/12/22 10:03:21;;;;;;;32.80;15.68;;;;;;;-4.60;100.00;101143.78;5031618;28;20029;-74
2021/12/22 10:05:47;;;;;;;35.03;15.32;;;;;;;-4.47;100.00;101144.34;5032856;28;20339;-73
2021/12/22 10:08:16;;;;;;;33.22;15.52;;;;;;;-4.38;100.00;101139.53;5033311;28;20116;-73
2021/12/22 10:11:02;;;;;;;31.02;15.02;;;;;;;-4.27;100.00;101133.91;5031572;28;20021;-73
2021/12/22 10:13:28;;;;;;;32.47;13.93;;;;;;;-4.26;100.00;101125.28;5033145;28;20025;-73
2021/12/22 10:15:55;;;;;;;32.17;16.00;;;;;;;-4.26;100.00;101128.78;5031618;28;20021;-72
2021/12/22 10:18:30;;;;;;;31.23;15.18;;;;;;;-4.19;100.00;101116.88;5032825;28;20232;-72
2021/12/22 10:21:13;;;;;;;32.80;15.75;;;;;;;-4.10;100.00;101129.47;5033353;28;20055;-73
2021/12/22 10:23:54;;;;;;;34.70;16.52;;;;;;;-4.20;100.00;101119.44;5031524;28;20036;-73
2021/12/22 10:26:22;;;;;;;32.42;15.52;;;;;;;-4.15;100.00;101116.19;5031454;28;20072;-74
2021/12/22 10:28:55;;;;;;;33.88;16.95;;;;;;;-4.18;100.00;101118.69;5032701;28;20041;-75
2021/12/22 10:31:42;;;;;;;36.70;17.98;;;;;;;-4.10;100.00;101120.75;5032631;28;20025;-75
2021/12/22 10:34:11;;;;;;;32.13;15.82;;;;;;;-4.16;100.00;101127.47;5031503;28;20025;-73
2021/12/22 10:36:48;;;;;;;33.63;17.15;;;;;;;-4.13;100.00;101138.84;5032894;28;20029;-73
2021/12/22 10:39:42;;;;;;;39.95;16.98;;;;;;;-4.09;100.00;101125.13;5032711;28;20051;-73
2021/12/22 10:42:10;;;;;;;34.85;17.52;;;;;;;-4.06;100.00;101135.69;5028224;28;20033;-74
2021/12/22 10:44:41;;;;;;;34.95;16.30;;;;;;;-3.94;100.00;101136.22;5032658;28;20093;-73
2021/12/22 10:47:23;;;;;;;34.30;16.35;;;;;;;-3.93;100.00;101139.72;5032906;28;20036;-73
2021/12/22 10:50:07;;;;;;;35.25;19.08;;;;;;;-3.79;100.00;101140.34;5031440;28;20104;-73
2021/12/22 10:52:33;;;;;;;;;;;;;;;-3.81;100.00;101121.97;5033227;28;20490;-73
2021/12/22 10:55:11;;;;;;;33.22;16.15;;;;;;;-3.75;100.00;101137.03;5034459;28;19913;-73
2021/12/22 10:57:38;;;;;;;31.00;16.00;;;;;;;-3.71;100.00;101117.19;5036834;28;20017;-73
2021/12/22 11:00:20;;;;;;;34.58;15.98;;;;;;;-3.78;100.00;101116.00;5036739;28;20025;-74
2021/12/22 11:03:07;;;;;;;35.42;17.05;;;;;;;-3.78;100.00;101110.78;5036389;28;20442;-73
2021/12/22 11:05:45;;;;;;;34.05;16.73;;;;;;;-3.63;100.00;101114.84;5036774;28;20022;-73
2021/12/22 11:08:26;;;;;;;36.60;17.80;;;;;;;-3.70;100.00;101112.00;5035224;28;20028;-73
2021/12/22 11:10:52;;;;;;;31.90;16.73;;;;;;;-3.77;100.00;101101.25;5036300;28;20469;-73
2021/12/22 11:13:23;;;;;;;32.00;16.58;;;;;;;-3.81;100.00;101105.44;5036327;28;20159;-73
2021/12/22 11:15:49;;;;;;;34.60;17.65;;;;;;;-3.68;100.00;101103.38;5036199;28;20033;-73
2021/12/22 11:18:33;;;;;;;34.05;16.30;;;;;;;-3.75;100.00;101100.47;5036621;28;20021;-73
2021/12/22 11:21:08;;;;;;;;;;;;;;;-3.70;100.00;101103.28;5035478;28;20071;-73
2021/12/22 11:23:34;;;;;;;33.90;16.02;;;;;;;-3.82;100.00;101095.84;5034904;28;19909;-72
2021/12/22 11:25:59;;;;;;;34.00;16.75;;;;;;;-3.90;100.00;101089.38;5036234;28;20033;-72
2021/12/22 11:28:25;;;;;;;36.17;18.35;;;;;;;-3.81;100.00;101092.38;5036291;28;20029;-71
2021/12/22 11:30:51;;;;;;;36.17;18.20;;;;;;;-3.84;100.00;101092.28;5036305;28;20025;-74
2021/12/22 11:33:16;;;;;;;38.42;18.83;;;;;;;-3.84;100.00;101094.88;5034783;28;20062;-73
2021/12/22 11:35:42;;;;;;;38.92;19.73;;;;;;;-3.75;100.00;101087.44;5036172;28;20025;-72
2021/12/22 11:38:07;;;;;;;39.42;19.98;;;;;;;-3.64;100.00;101097.44;5036004;28;20021;-72
2021/12/22 11:40:33;;;;;;;41.38;20.27;;;;;;;-3.42;100.00;101093.97;5035840;28;20391;-72
2021/12/22 11:42:58;;;;;;;37.45;19.45;;;;;;;-3.57;100.00;101089.00;5036199;28;20032;-72
2021/12/22 11:45:26;;;;;;;34.58;18.50;;;;;;;-3.67;100.00;101084.25;5035889;28;20022;-71